Ana Sayfa
METAR-TAF:

METAR-TAF

Havaalanları :

Linden, New Jersey, Amerika Birleşik Devletleri

Enlem: 40-37-03N, Boylam: 074-14-40W, yükseklik: 7 m

Güncel hava durumu gözlemi

Rapor saat 01:55 UTC de 29 dakika önce yapıldı.
Sakin rüzgar
Sıcaklık 5°C
Nem 93%
Basınç 1007 hPa
Görüş mesafesi: 4.8 km
1300 ft yükseklikte parçalı çok bulutlu
2000 ft yükseklikte çok bulutlu
hafif yağmur

METAR: KLDJ 190155Z AUTO 00000KT 3SM -RA BKN013 OVC020 05/04 A2973 RMK AO2 P0013 T00470037

Saat: 21:24 (02:24 UTC)


TAF: eksik

4.000'den fazla havaalanı için hava durumu gözlemleri ve tahminleri (METAR ve TAF raporları).

Kullanılabilir istasyonlar harita üzerinde sarı ve kırmızı noktalarla gösterilir.

İstasyonun adını görmek için fareyi noktanın üzerinde gezdirin.

Sonrasında hava gözlem ve tahminlerini görmek için tıklayın.

Haritayı değiştirmek için: yaklaştırmak için siyah artı işaretli yeşil düğmeye ve uzaklaştırmak için de eksi işaretli düğmeye hızla tıklayın; bitişik haritalar için yeşil okları kullanın.


METAR-TAF: